Meteo Giornale » Osservazioni meteo Germania » Altenstadt

ore: 00:20 - Osservazioni Meteo Altenstadt
Lat. 47° 50' N Lon. 10° 52' E Alt. 739 metri s.l.m.

sereno

14 °C

Sereno

Temp. 24 Ore

12 °C

22 °C

Nord

3.7 Km/h

Dew point 10 °C

Umidità 76 %

Visibilità  10 Km

Il sole sorge alle ore 06:36

Il sole tramonta alle ore 19:56

Data e Ora Cielo e Fenomeni T °C DP °C Um. % Pres. hPa Vis. km Vento km/h
Oggi h: 00:20 sereno Sereno 14 10 76 1023 10 N 3.7
Ieri h: 23:20 sereno Sereno 14 10 76 1023 10 N 1.8
Ieri h: 22:20 sereno Sereno 15 11 76 1023 10 N 3.7
Ieri h: 21:20 sereno Sereno 16 10 67 1023 10 N 3.7
Ieri h: 20:20 molto_nuvoloso Molto Nuvoloso 17 10 63 1022 10 N 7.4
Ieri h: 19:20 molto_nuvoloso Molto Nuvoloso 20 10 52 1022 10 N/NO 9.3
Ieri h: 18:20 molto_nuvoloso Molto Nuvoloso 21 10 49 1022 10 NO 11.1
Ieri h: 17:20 poco_nuvoloso Poco Nuvoloso 22 9 43 1022 10 O 14.8
Ieri h: 16:20 nuvoloso Nuvoloso 22 9 43 1022 10 NO 13
Ieri h: 15:20 nuvoloso Nuvoloso 22 8 40 1022 10 O/NO 18.5
Ieri h: 15:00 nuvoloso Nuvoloso 22 8 40 1023 10 O/NO 18.5
Ieri h: 14:20 nuvoloso Nuvoloso 22 9 43 1023 10 O/NO 22.2
Ieri h: 13:20 poco_nuvoloso Poco Nuvoloso 21 10 49 1023 10 O 18.5
Ieri h: 12:20 poco_nuvoloso Poco Nuvoloso 20 12 59 1023 10 O 11.1
Ieri h: 11:20 poco_nuvoloso Poco Nuvoloso 20 11 56 1023 10 O 14.8
Ieri h: 10:20 poco_nuvoloso Poco Nuvoloso 19 10 55 1023 10 N 3.7
Ieri h: 09:20 poco_nuvoloso Poco Nuvoloso 17 11 67 1023 10 N 1.8
Ieri h: 08:20 nuvoloso Nuvoloso 13 10 81 1023 10 N 1.8
Ieri h: 07:20 poco_nuvoloso Poco Nuvoloso 12 9 81 1023 10 N 3.7
Ieri h: 06:20 poco_nuvoloso Poco Nuvoloso 12 9 81 1023 10 S/SO 7.4